Time;durP1;ratioP1;P1;durP2;ratioP2;P2;SDS_P1;SDS_P2;PMS_P1;PMS_P2;Temp;Humidity;BMP_temperature;BMP_pressure;BME280_temperature;BME280_humidity;BME280_pressure;Samples;Min_cycle;Max_cycle;Signal;HPM_P1;HPM_P2
2023/01/10 00:10:10;;;;;;;116.40;41.20;;;;;;;7.77;100.00;99408.26;679532;1269;140199;-81
2023/01/10 00:25:13;;;;;;;134.30;47.00;;;;;;;7.76;100.00;99418.42;679893;1269;138721;-80
2023/01/10 00:40:17;;;;;;;104.30;41.50;;;;;;;7.82;100.00;99439.57;679769;1270;138850;-80
2023/01/10 00:55:20;;;;;;;89.90;33.10;;;;;;;7.86;100.00;99453.43;679731;1267;139399;-80
2023/01/10 01:10:26;;;;;;;95.20;36.10;;;;;;;7.90;100.00;99485.30;679853;1284;138294;-79
2023/01/10 01:25:30;;;;;;;98.40;39.10;;;;;;;7.90;100.00;99499.19;679816;1272;139433;-79
2023/01/10 01:40:35;;;;;;;79.40;30.80;;;;;;;7.90;100.00;99516.99;679681;1272;139949;-79
2023/01/10 01:55:40;;;;;;;91.60;37.80;;;;;;;7.91;100.00;99531.15;679596;1272;139324;-78
2023/01/10 02:11:07;;;;;;;75.90;31.80;;;;;;;7.95;100.00;99546.49;679738;1272;139469;-79
2023/01/10 02:26:32;;;;;;;78.30;34.60;;;;;;;7.93;100.00;99570.30;679584;1284;139198;-77
2023/01/10 02:41:42;;;;;;;109.00;46.70;;;;;;;7.93;100.00;99600.11;679721;1272;138792;-79
2023/01/10 02:56:51;;;;;;;166.80;62.80;;;;;;;7.95;100.00;99608.14;679727;1284;139115;-81
2023/01/10 03:12:05;;;;;;;109.90;44.70;;;;;;;7.82;100.00;99611.30;679860;1271;139451;-79
2023/01/10 03:27:26;;;;;;;87.00;36.50;;;;;;;7.57;100.00;99628.95;679842;1269;139418;-78
2023/01/10 03:58:04;;;;;;;61.20;26.20;;;;;;;6.90;100.00;99686.14;679786;1271;139413;-81
2023/01/10 04:13:07;;;;;;;63.60;28.50;;;;;;;6.62;100.00;99713.48;679290;1272;140172;-81
2023/01/10 04:28:11;;;;;;;54.70;28.80;;;;;;;6.40;100.00;99733.09;679311;1273;138807;-81
2023/01/10 04:43:14;;;;;;;61.20;31.20;;;;;;;6.21;100.00;99752.13;678812;1274;139284;-81
2023/01/10 04:58:17;;;;;;;78.40;35.60;;;;;;;5.89;100.00;99770.41;679240;1272;138292;-82
2023/01/10 05:13:21;;;;;;;63.30;25.20;;;;;;;5.67;100.00;99793.38;679127;1272;138851;-80
2023/01/10 05:28:24;;;;;;;53.30;23.00;;;;;;;5.62;100.00;99829.14;678574;1274;138298;-80
2023/01/10 05:43:27;;;;;;;59.60;24.50;;;;;;;5.82;100.00;99862.21;679155;1272;138419;-80
2023/01/10 05:58:31;;;;;;;67.80;29.70;;;;;;;5.84;100.00;99897.23;679352;1272;138727;-80
2023/01/10 06:13:34;;;;;;;69.50;33.00;;;;;;;5.77;100.00;99936.80;678702;1272;140230;-80
2023/01/10 06:28:39;;;;;;;53.40;22.90;;;;;;;5.41;100.00;99959.33;678919;1274;138459;-80
2023/01/10 06:43:44;;;;;;;53.70;23.10;;;;;;;5.37;100.00;99992.61;679153;1272;139050;-80
2023/01/10 06:58:49;;;;;;;60.20;27.30;;;;;;;5.27;100.00;100013.58;678593;1273;138877;-80
2023/01/10 07:13:52;;;;;;;106.70;51.60;;;;;;;5.66;100.00;100039.78;679012;1274;139639;-81
2023/01/10 07:28:56;;;;;;;49.00;21.10;;;;;;;5.88;100.00;100056.80;678730;1272;139830;-79
2023/01/10 07:43:59;;;;;;;60.80;24.80;;;;;;;5.65;100.00;100080.83;678598;1272;139089;-80
2023/01/10 07:59:02;;;;;;;66.60;27.30;;;;;;;5.78;100.00;100112.02;679089;1273;138563;-80
2023/01/10 08:14:05;;;;;;;50.70;25.90;;;;;;;5.90;100.00;100113.10;678580;1270;139000;-80
2023/01/10 08:29:09;;;;;;;625.20;193.20;;;;;;;5.88;100.00;100128.55;678288;1273;139255;-79
2023/01/10 08:44:14;;;;;;;92.20;44.60;;;;;;;5.96;100.00;100137.02;678136;1273;140149;-80
2023/01/10 08:59:17;;;;;;;63.80;35.00;;;;;;;6.10;100.00;100171.46;678694;1273;138287;-80
2023/01/10 09:14:21;;;;;;;44.30;20.80;;;;;;;6.13;100.00;100196.77;678264;1273;138670;-79
2023/01/10 09:29:24;;;;;;;40.60;21.30;;;;;;;5.79;100.00;100228.76;679000;1273;140983;-80
2023/01/10 09:44:54;;;;;;;145.70;61.70;;;;;;;5.53;100.00;100243.73;680450;1270;139588;-80
2023/01/10 10:00:00;;;;;;;89.10;42.90;;;;;;;5.68;100.00;100245.30;680526;1267;138872;-80
2023/01/10 10:15:21;;;;;;;134.40;60.00;;;;;;;5.63;100.00;100249.64;681748;1265;139392;-80
2023/01/10 10:30:34;;;;;;;107.60;42.60;;;;;;;6.01;100.00;100246.02;681563;1260;139484;-80
2023/01/10 10:45:43;;;;;;;77.20;35.40;;;;;;;6.42;100.00;100246.62;681680;1262;139016;-80
2023/01/10 11:00:46;;;;;;;33.20;16.90;;;;;;;6.83;100.00;100254.66;681651;1261;140198;-81
2023/01/10 11:15:50;;;;;;;71.40;34.70;;;;;;;7.02;100.00;100260.08;681738;1260;138584;-80
2023/01/10 11:30:57;;;;;;;82.20;32.70;;;;;;;7.10;100.00;100266.92;681646;1264;139104;-81
2023/01/10 11:46:26;;;;;;;65.30;29.50;;;;;;;7.11;100.00;100285.48;682022;1263;139986;-81
2023/01/10 12:01:56;;;;;;;264.60;67.30;;;;;;;7.04;100.00;100307.56;681752;1261;139047;-81
2023/01/10 12:17:02;;;;;;;86.50;45.10;;;;;;;7.27;100.00;100320.69;681546;1267;138958;-81
2023/01/10 12:32:16;;;;;;;71.90;33.20;;;;;;;7.52;100.00;100340.76;681772;1264;139795;-79
2023/01/10 12:47:45;;;;;;;129.60;51.70;;;;;;;7.75;100.00;100351.25;682187;1262;139902;-78
2023/01/10 13:02:53;;;;;;;99.20;51.30;;;;;;;7.70;100.00;100370.30;681975;1260;139499;-78
2023/01/10 13:18:16;;;;;;;102.40;46.10;;;;;;;7.58;100.00;100395.86;682083;1260;140480;-79
2023/01/10 13:33:44;;;;;;;107.90;43.70;;;;;;;7.58;100.00;100408.80;682004;1262;140545;-78
2023/01/10 13:48:48;;;;;;;53.50;23.50;;;;;;;7.35;100.00;100426.42;681852;1261;140001;-79
2023/01/10 14:03:56;;;;;;;52.50;26.20;;;;;;;7.14;100.00;100439.89;682094;1265;139562;-78
2023/01/10 14:19:03;;;;;;;68.70;32.60;;;;;;;6.98;100.00;100454.61;681992;1275;140891;-78
2023/01/10 14:34:20;;;;;;;85.10;37.70;;;;;;;6.78;100.00;100473.71;682003;1261;139649;-79
2023/01/10 14:49:34;;;;;;;56.10;23.20;;;;;;;6.74;100.00;100491.05;681879;1263;139286;-81
2023/01/10 15:05:07;;;;;;;60.50;25.10;;;;;;;6.68;100.00;100505.33;682015;1261;138971;-79
2023/01/10 15:20:15;;;;;;;59.10;23.40;;;;;;;6.44;100.00;100525.17;682004;1263;138969;-79
2023/01/10 15:35:23;;;;;;;115.10;46.70;;;;;;;6.51;100.00;100545.21;682003;1264;138828;-79
2023/01/10 15:50:38;;;;;;;77.80;34.20;;;;;;;6.40;100.00;100568.91;681863;1264;140314;-79
2023/01/10 16:05:53;;;;;;;87.00;33.50;;;;;;;6.41;100.00;100562.58;681940;1259;139847;-80
2023/01/10 16:21:01;;;;;;;140.90;52.10;;;;;;;6.72;100.00;100566.44;679261;1263;3581921;-79
2023/01/10 16:36:13;;;;;;;112.80;45.70;;;;;;;6.77;100.00;100577.00;682181;1263;140389;-81
2023/01/10 16:51:22;;;;;;;93.90;40.60;;;;;;;6.82;100.00;100589.08;682125;1262;139569;-80
2023/01/10 17:06:26;;;;;;;185.80;69.70;;;;;;;6.94;100.00;100597.10;682000;1260;139255;-79
2023/01/10 17:21:29;;;;;;;114.00;44.40;;;;;;;7.04;100.00;100609.46;681958;1264;139916;-81
2023/01/10 17:36:37;;;;;;;246.20;104.10;;;;;;;7.06;100.00;100634.23;682149;1263;139064;-80
2023/01/10 17:51:40;;;;;;;122.20;46.70;;;;;;;7.12;100.00;100645.64;682035;1265;139291;-80
2023/01/10 18:06:45;;;;;;;104.10;38.80;;;;;;;7.17;100.00;100639.53;682253;1264;140710;-80
2023/01/10 18:21:48;;;;;;;272.80;100.00;;;;;;;7.12;100.00;100641.26;682122;1264;139343;-80
2023/01/10 18:36:52;;;;;;;126.20;42.50;;;;;;;7.16;100.00;100662.61;682005;1260;139424;-80
2023/01/10 18:51:55;;;;;;;99.40;37.80;;;;;;;7.24;100.00;100664.30;682171;1265;139087;-80
2023/01/10 19:06:58;;;;;;;92.70;34.10;;;;;;;7.21;100.00;100669.39;682420;1265;139507;-80
2023/01/10 19:22:02;;;;;;;114.20;41.10;;;;;;;7.15;100.00;100686.30;681932;1265;138905;-80
2023/01/10 19:37:06;;;;;;;78.10;30.10;;;;;;;7.18;100.00;100693.07;681878;1264;139125;-82
2023/01/10 19:52:10;;;;;;;112.50;42.90;;;;;;;7.19;100.00;100697.90;681550;1265;139207;-81
2023/01/10 20:07:13;;;;;;;111.00;44.50;;;;;;;7.21;100.00;100708.34;681419;1261;140722;-81
2023/01/10 20:22:20;;;;;;;77.60;28.80;;;;;;;7.23;100.00;100707.02;681989;1263;138994;-81
2023/01/10 20:37:24;;;;;;;70.90;29.20;;;;;;;7.25;100.00;100710.88;681960;1265;138989;-80
2023/01/10 20:52:27;;;;;;;81.50;26.80;;;;;;;7.17;100.00;100710.54;682012;1263;139247;-80
2023/01/10 21:07:32;;;;;;;85.80;26.70;;;;;;;7.06;100.00;100709.16;681786;1264;139941;-81
2023/01/10 21:22:36;;;;;;;71.30;26.00;;;;;;;7.09;100.00;100709.98;681952;1263;139053;-81
2023/01/10 21:37:40;;;;;;;93.70;32.10;;;;;;;7.07;100.00;100707.02;681904;1264;139569;-80
2023/01/10 21:52:44;;;;;;;98.80;33.20;;;;;;;7.09;100.00;100707.44;682034;1261;140660;-81
2023/01/10 22:07:47;;;;;;;100.90;32.00;;;;;;;7.15;100.00;100708.25;682030;1265;140083;-81
2023/01/10 22:22:50;;;;;;;113.20;35.40;;;;;;;7.16;100.00;100712.18;682064;1265;139169;-81
2023/01/10 22:37:55;;;;;;;101.40;35.50;;;;;;;7.18;100.00;100705.63;681800;1264;199410;-80
2023/01/10 22:52:59;;;;;;;100.70;33.90;;;;;;;7.21;100.00;100711.48;682186;1266;140083;-80
2023/01/10 23:08:04;;;;;;;86.60;29.20;;;;;;;7.25;100.00;100722.51;682123;1263;139744;-80
2023/01/10 23:23:10;;;;;;;84.70;31.20;;;;;;;7.26;100.00;100725.27;682304;1263;140368;-81
2023/01/10 23:38:14;;;;;;;80.00;29.50;;;;;;;7.27;100.00;100733.86;682213;1264;139271;-81
2023/01/10 23:53:18;;;;;;;68.80;26.80;;;;;;;7.27;100.00;100735.27;682226;1262;138700;-81
